createdAt,value
2023-01-17T00:00:09.322Z,100.00
2023-01-17T00:02:36.096Z,100.00
2023-01-17T00:05:21.440Z,100.00
2023-01-17T00:08:06.989Z,100.00
2023-01-17T00:10:34.186Z,100.00
2023-01-17T00:13:03.638Z,100.00
2023-01-17T00:15:31.609Z,100.00
2023-01-17T00:17:58.978Z,100.00
2023-01-17T00:20:47.406Z,100.00
2023-01-17T00:23:36.154Z,100.00
2023-01-17T00:26:03.791Z,100.00
2023-01-17T00:28:39.192Z,100.00
2023-01-17T00:31:08.041Z,100.00
2023-01-17T00:33:35.419Z,100.00
2023-01-17T00:36:03.671Z,100.00
2023-01-17T00:38:32.464Z,100.00
2023-01-17T00:41:11.309Z,100.00
2023-01-17T00:43:56.712Z,100.00
2023-01-17T00:46:42.207Z,100.00
2023-01-17T00:49:27.651Z,100.00
2023-01-17T00:52:13.736Z,100.00
2023-01-17T00:54:59.744Z,100.00
2023-01-17T00:57:45.751Z,100.00
2023-01-17T01:00:31.517Z,100.00
2023-01-17T01:03:17.248Z,100.00
2023-01-17T01:06:02.330Z,100.00
2023-01-17T01:08:48.661Z,100.00
2023-01-17T01:11:36.707Z,100.00
2023-01-17T01:14:23.026Z,100.00
2023-01-17T01:17:08.799Z,100.00
2023-01-17T01:19:54.090Z,100.00
2023-01-17T01:22:39.677Z,100.00
2023-01-17T01:25:25.718Z,100.00
2023-01-17T01:28:11.496Z,100.00
2023-01-17T01:30:56.475Z,100.00
2023-01-17T01:33:23.422Z,100.00
2023-01-17T01:35:54.194Z,100.00
2023-01-17T01:38:25.366Z,100.00
2023-01-17T01:40:54.315Z,100.00
2023-01-17T01:43:40.977Z,100.00
2023-01-17T01:46:08.324Z,100.00
2023-01-17T01:48:40.078Z,100.00
2023-01-17T01:51:10.809Z,100.00
2023-01-17T01:53:40.500Z,100.00
2023-01-17T01:56:12.007Z,100.00
2023-01-17T01:58:39.799Z,100.00
2023-01-17T02:01:08.509Z,100.00
2023-01-17T02:03:36.653Z,100.00
2023-01-17T02:06:34.792Z,100.00
2023-01-17T02:09:07.890Z,100.00
2023-01-17T02:11:37.034Z,100.00
2023-01-17T02:14:04.083Z,100.00
2023-01-17T02:17:08.235Z,100.00
2023-01-17T02:20:25.925Z,100.00
2023-01-17T02:23:14.590Z,100.00
2023-01-17T02:26:19.166Z,100.00
2023-01-17T02:29:23.457Z,100.00
2023-01-17T02:31:57.463Z,100.00
2023-01-17T02:34:54.669Z,100.00
2023-01-17T02:37:35.027Z,100.00
2023-01-17T02:40:14.904Z,100.00
2023-01-17T02:42:46.285Z,100.00
2023-01-17T02:45:17.607Z,100.00
2023-01-17T02:47:44.389Z,100.00
2023-01-17T02:50:17.833Z,100.00
2023-01-17T02:53:08.485Z,100.00
2023-01-17T02:56:00.047Z,100.00
2023-01-17T02:59:01.273Z,100.00
2023-01-17T03:01:48.463Z,100.00
2023-01-17T03:04:29.536Z,100.00
2023-01-17T03:06:57.664Z,100.00
2023-01-17T03:09:25.659Z,100.00
2023-01-17T03:11:52.738Z,100.00
2023-01-17T03:14:19.407Z,100.00
2023-01-17T03:16:46.437Z,100.00
2023-01-17T03:19:15.195Z,100.00
2023-01-17T03:21:42.302Z,100.00
2023-01-17T03:24:09.087Z,100.00
2023-01-17T03:26:36.048Z,100.00
2023-01-17T03:29:03.207Z,100.00
2023-01-17T03:31:29.952Z,100.00
2023-01-17T03:33:57.218Z,100.00
2023-01-17T03:36:23.943Z,100.00
2023-01-17T03:38:51.067Z,100.00
2023-01-17T03:41:18.101Z,100.00
2023-01-17T03:43:44.952Z,100.00
2023-01-17T03:46:28.849Z,100.00
2023-01-17T03:48:55.897Z,100.00
2023-01-17T03:51:22.816Z,100.00
2023-01-17T03:53:50.613Z,100.00
2023-01-17T03:56:17.382Z,100.00
2023-01-17T03:58:44.090Z,100.00
2023-01-17T04:01:11.377Z,100.00
2023-01-17T04:03:39.186Z,100.00
2023-01-17T04:06:06.412Z,100.00
2023-01-17T04:08:33.042Z,100.00
2023-01-17T04:10:59.836Z,100.00
2023-01-17T04:13:26.602Z,100.00
2023-01-17T04:15:54.200Z,100.00
2023-01-17T04:18:23.530Z,100.00
2023-01-17T04:20:50.998Z,99.87
2023-01-17T04:23:18.059Z,99.73
2023-01-17T04:25:44.955Z,99.92
2023-01-17T04:28:11.631Z,100.00
2023-01-17T04:30:38.314Z,100.00
2023-01-17T04:33:05.490Z,100.00
2023-01-17T04:35:33.679Z,100.00
2023-01-17T04:38:00.497Z,99.80
2023-01-17T04:40:27.979Z,100.00
2023-01-17T04:42:54.678Z,100.00
2023-01-17T04:45:22.037Z,100.00
2023-01-17T04:47:48.744Z,100.00
2023-01-17T04:50:15.634Z,100.00
2023-01-17T04:52:43.158Z,100.00
2023-01-17T04:55:11.120Z,100.00
2023-01-17T04:57:37.919Z,100.00
2023-01-17T05:00:05.469Z,100.00
2023-01-17T05:02:32.520Z,100.00
2023-01-17T05:04:59.377Z,100.00
2023-01-17T05:07:26.436Z,100.00
2023-01-17T05:09:53.592Z,100.00
2023-01-17T05:12:20.289Z,100.00
2023-01-17T05:14:47.606Z,100.00
2023-01-17T05:17:14.501Z,100.00
2023-01-17T05:19:41.276Z,100.00
2023-01-17T05:22:15.454Z,100.00
2023-01-17T05:24:45.868Z,100.00
2023-01-17T05:27:13.312Z,100.00
2023-01-17T05:29:40.433Z,100.00
2023-01-17T05:32:07.121Z,100.00
2023-01-17T05:34:33.976Z,100.00
2023-01-17T05:37:00.917Z,100.00
2023-01-17T05:39:27.725Z,100.00
2023-01-17T05:41:54.585Z,100.00
2023-01-17T05:44:21.701Z,100.00
2023-01-17T05:46:48.536Z,100.00
2023-01-17T05:49:15.134Z,100.00
2023-01-17T05:51:41.965Z,99.63
2023-01-17T05:54:08.815Z,99.50
2023-01-17T05:56:35.475Z,100.00
2023-01-17T05:59:02.407Z,100.00
2023-01-17T06:01:29.124Z,100.00
2023-01-17T06:03:55.833Z,100.00
2023-01-17T06:06:23.124Z,100.00
2023-01-17T06:08:50.303Z,100.00
2023-01-17T06:11:18.805Z,100.00
2023-01-17T06:13:45.934Z,100.00
2023-01-17T06:16:12.743Z,100.00
2023-01-17T06:18:39.861Z,100.00
2023-01-17T06:21:07.078Z,100.00
2023-01-17T06:23:33.715Z,100.00
2023-01-17T06:26:04.025Z,100.00
2023-01-17T06:28:34.847Z,100.00
2023-01-17T06:31:06.946Z,100.00
2023-01-17T06:33:34.122Z,100.00
2023-01-17T06:36:01.533Z,100.00
2023-01-17T06:38:30.354Z,100.00
2023-01-17T06:41:00.869Z,100.00
2023-01-17T06:43:33.043Z,100.00
2023-01-17T06:46:01.537Z,100.00
2023-01-17T06:48:28.302Z,100.00
2023-01-17T06:50:55.203Z,100.00
2023-01-17T06:53:21.878Z,99.08
2023-01-17T06:55:48.775Z,98.79
2023-01-17T06:58:15.459Z,98.51
2023-01-17T07:00:42.371Z,97.25
2023-01-17T07:03:18.514Z,97.16
2023-01-17T07:05:45.346Z,96.54
2023-01-17T07:08:12.169Z,96.41
2023-01-17T07:10:38.832Z,95.57
2023-01-17T07:13:05.560Z,95.83
2023-01-17T07:15:32.307Z,96.32
2023-01-17T07:18:01.586Z,95.68
2023-01-17T07:20:28.393Z,94.96
2023-01-17T07:22:55.269Z,95.02
2023-01-17T07:25:22.513Z,95.01
2023-01-17T07:27:49.243Z,94.98
2023-01-17T07:30:16.445Z,94.65
2023-01-17T07:32:43.144Z,95.72
2023-01-17T07:35:10.287Z,95.95
2023-01-17T07:37:36.937Z,94.27
2023-01-17T07:40:04.612Z,94.13
2023-01-17T07:42:31.481Z,94.20
2023-01-17T07:44:58.271Z,93.50
2023-01-17T07:47:25.803Z,92.94
2023-01-17T07:49:52.640Z,94.07
2023-01-17T07:52:19.440Z,92.88
2023-01-17T07:54:46.059Z,92.83
2023-01-17T07:57:13.607Z,92.12
2023-01-17T07:59:40.313Z,92.33
2023-01-17T08:02:10.459Z,92.06
2023-01-17T08:04:37.284Z,91.84
2023-01-17T08:07:03.995Z,92.42
2023-01-17T08:09:31.103Z,91.91
2023-01-17T08:11:57.968Z,91.09
2023-01-17T08:14:25.268Z,91.83
2023-01-17T08:16:52.064Z,90.69
2023-01-17T08:19:19.206Z,91.78
2023-01-17T08:21:46.937Z,91.38
2023-01-17T08:24:15.013Z,91.44
2023-01-17T08:26:42.334Z,90.47
2023-01-17T08:29:09.341Z,90.56
2023-01-17T08:31:36.387Z,90.40
2023-01-17T08:34:03.608Z,91.21
2023-01-17T08:36:31.507Z,90.06
2023-01-17T08:38:58.778Z,90.41
2023-01-17T08:41:27.634Z,89.69
2023-01-17T08:43:54.345Z,88.75
2023-01-17T08:46:21.133Z,89.23
2023-01-17T08:48:47.785Z,89.05
2023-01-17T08:51:14.554Z,88.57
2023-01-17T08:53:42.113Z,89.18
2023-01-17T08:56:09.678Z,88.73
2023-01-17T08:58:36.581Z,90.18
2023-01-17T09:01:05.343Z,89.28
2023-01-17T09:03:33.464Z,88.74
2023-01-17T09:06:11.368Z,87.75
2023-01-17T09:08:38.423Z,88.09
2023-01-17T09:11:10.770Z,88.48
2023-01-17T09:13:37.975Z,88.17
2023-01-17T09:16:05.866Z,88.10
2023-01-17T09:18:34.072Z,88.74
2023-01-17T09:21:15.867Z,88.13
2023-01-17T09:23:42.957Z,87.89
2023-01-17T09:26:19.551Z,88.27
2023-01-17T09:28:46.385Z,87.12
2023-01-17T09:31:15.366Z,87.10
2023-01-17T09:33:43.523Z,86.15
2023-01-17T09:36:10.962Z,86.63
2023-01-17T09:38:38.587Z,86.10
2023-01-17T09:41:20.419Z,86.93
2023-01-17T09:44:33.515Z,85.79
2023-01-17T09:47:07.438Z,86.85
2023-01-17T09:49:42.788Z,86.41
2023-01-17T09:52:12.464Z,85.26
2023-01-17T09:54:41.675Z,85.92
2023-01-17T09:57:27.110Z,85.36
2023-01-17T10:00:22.932Z,84.94
2023-01-17T10:03:27.041Z,84.77
2023-01-17T10:06:17.695Z,86.07
2023-01-17T10:09:26.004Z,84.96
2023-01-17T10:12:40.408Z,84.82
2023-01-17T10:15:48.782Z,82.40
2023-01-17T10:19:08.503Z,83.44
2023-01-17T10:22:13.159Z,81.52
2023-01-17T10:25:18.939Z,81.22
2023-01-17T10:27:55.382Z,82.40
2023-01-17T10:30:31.607Z,81.42
2023-01-17T10:33:00.437Z,80.89
2023-01-17T10:35:30.897Z,81.04
2023-01-17T10:37:59.524Z,81.31
2023-01-17T10:40:41.488Z,79.78
2023-01-17T10:43:39.570Z,79.87
2023-01-17T10:46:07.911Z,78.70
2023-01-17T10:48:46.711Z,78.56
2023-01-17T10:51:28.355Z,79.71
2023-01-17T10:54:23.196Z,80.94
2023-01-17T10:56:49.838Z,78.73
2023-01-17T10:59:34.545Z,78.85
2023-01-17T11:02:07.799Z,78.36
2023-01-17T11:04:39.433Z,78.59
2023-01-17T11:07:15.096Z,79.83
2023-01-17T11:09:49.774Z,79.44
2023-01-17T11:12:42.221Z,80.47
2023-01-17T11:15:29.328Z,80.34
2023-01-17T11:18:05.209Z,78.60
2023-01-17T11:20:43.210Z,79.86
2023-01-17T11:23:19.095Z,79.80
2023-01-17T11:25:55.316Z,79.64
2023-01-17T11:28:36.869Z,79.41
2023-01-17T11:31:23.766Z,81.08
2023-01-17T11:34:18.185Z,80.27
2023-01-17T11:36:45.264Z,79.76
2023-01-17T11:39:38.268Z,80.66
2023-01-17T11:42:06.828Z,80.77
2023-01-17T11:44:35.470Z,80.53
2023-01-17T11:47:19.249Z,80.35
2023-01-17T11:49:48.038Z,80.27
2023-01-17T11:52:26.425Z,79.23
2023-01-17T11:54:54.981Z,79.80
2023-01-17T11:57:31.050Z,79.25
2023-01-17T12:00:20.124Z,79.79
2023-01-17T12:03:11.314Z,80.61
2023-01-17T12:05:51.622Z,80.77
2023-01-17T12:08:51.842Z,79.31
2023-01-17T12:11:37.619Z,79.57
2023-01-17T12:14:18.875Z,80.82
2023-01-17T12:17:00.754Z,79.90
2023-01-17T12:19:43.807Z,80.08
2023-01-17T12:23:06.496Z,81.04
2023-01-17T12:26:05.093Z,79.04
2023-01-17T12:28:52.972Z,78.02
2023-01-17T12:31:53.303Z,78.12
2023-01-17T12:34:26.230Z,78.56
2023-01-17T12:37:03.827Z,78.85
2023-01-17T12:39:39.777Z,78.82
2023-01-17T12:42:14.160Z,78.78
2023-01-17T12:44:56.228Z,77.53
2023-01-17T12:47:23.019Z,77.61
2023-01-17T12:50:04.165Z,77.69
2023-01-17T12:52:49.015Z,78.43
2023-01-17T12:55:32.702Z,78.03
2023-01-17T12:58:01.236Z,77.81
2023-01-17T13:00:29.939Z,77.97
2023-01-17T13:03:24.844Z,77.83
2023-01-17T13:05:51.831Z,77.56
2023-01-17T13:08:24.093Z,77.13
2023-01-17T13:10:57.759Z,78.65
2023-01-17T13:13:26.974Z,78.48
2023-01-17T13:15:56.504Z,78.22
2023-01-17T13:18:26.673Z,78.71
2023-01-17T13:21:22.977Z,78.15
2023-01-17T13:24:21.961Z,78.24
2023-01-17T13:27:00.999Z,78.27
2023-01-17T13:29:40.108Z,79.14
2023-01-17T13:32:38.211Z,80.05
2023-01-17T13:35:13.944Z,78.98
2023-01-17T13:37:52.931Z,78.27
2023-01-17T13:40:32.173Z,77.55
2023-01-17T13:43:03.859Z,77.73
2023-01-17T13:45:35.876Z,77.22
2023-01-17T13:48:30.306Z,76.12
2023-01-17T13:50:58.909Z,77.16
2023-01-17T13:53:34.487Z,75.80
2023-01-17T13:56:14.880Z,76.77
2023-01-17T13:58:49.014Z,76.16
2023-01-17T14:01:38.801Z,76.50
2023-01-17T14:04:09.164Z,78.58
2023-01-17T14:06:49.064Z,78.22
2023-01-17T14:09:21.212Z,78.31
2023-01-17T14:17:25.805Z,79.55
2023-01-17T14:19:55.149Z,79.51
2023-01-17T14:22:26.396Z,77.26
2023-01-17T14:25:10.143Z,76.79
2023-01-17T14:28:03.905Z,76.22
2023-01-17T14:30:37.231Z,76.83
2023-01-17T14:33:17.347Z,78.35
2023-01-17T14:35:57.092Z,76.50
2023-01-17T14:38:29.267Z,77.59
2023-01-17T14:41:08.028Z,77.71
2023-01-17T14:43:38.054Z,77.41
2023-01-17T14:46:25.177Z,76.47
2023-01-17T14:49:00.082Z,77.57
2023-01-17T14:51:26.874Z,77.55
2023-01-17T14:54:05.731Z,77.78
2023-01-17T14:56:32.712Z,78.18
2023-01-17T14:59:17.516Z,77.41
2023-01-17T15:01:55.214Z,77.39
2023-01-17T15:04:30.930Z,78.88
2023-01-17T15:06:59.024Z,79.24
2023-01-17T15:09:30.380Z,78.47
2023-01-17T15:11:58.239Z,77.89
2023-01-17T15:14:30.472Z,77.91
2023-01-17T15:16:57.511Z,78.93
2023-01-17T15:19:27.886Z,80.59
2023-01-17T15:21:55.800Z,81.22
2023-01-17T15:24:26.883Z,81.54
2023-01-17T15:26:53.771Z,80.72
2023-01-17T15:29:34.266Z,82.80
2023-01-17T15:32:05.984Z,83.72
2023-01-17T15:34:43.776Z,83.30
2023-01-17T15:37:31.139Z,84.62
2023-01-17T15:40:19.347Z,84.18
2023-01-17T15:42:52.326Z,84.18
2023-01-17T15:45:22.170Z,84.32
2023-01-17T15:47:49.422Z,85.40
2023-01-17T15:50:42.508Z,84.38
2023-01-17T15:53:31.923Z,87.06
2023-01-17T15:55:59.395Z,86.51
2023-01-17T15:58:28.707Z,85.96
2023-01-17T16:00:55.737Z,86.87
2023-01-17T16:03:29.491Z,87.32
2023-01-17T16:05:58.984Z,87.34
2023-01-17T16:08:51.940Z,88.20
2023-01-17T16:11:19.287Z,88.72
2023-01-17T16:13:47.535Z,89.43
2023-01-17T16:16:20.216Z,88.90
2023-01-17T16:18:47.981Z,89.54
2023-01-17T16:21:26.684Z,90.36
2023-01-17T16:23:54.004Z,89.93
2023-01-17T16:26:20.892Z,90.48
2023-01-17T16:28:48.247Z,91.09
2023-01-17T16:31:16.013Z,91.52
2023-01-17T16:33:42.769Z,92.27
2023-01-17T16:36:15.081Z,91.62
2023-01-17T16:38:43.193Z,91.28
2023-01-17T16:41:10.049Z,90.02
2023-01-17T16:43:36.763Z,90.72
2023-01-17T16:46:03.562Z,90.82
2023-01-17T16:48:30.322Z,91.70
2023-01-17T16:50:57.313Z,91.30
2023-01-17T16:53:27.065Z,93.77
2023-01-17T16:55:57.807Z,93.67
2023-01-17T16:58:24.730Z,94.25
2023-01-17T17:00:51.941Z,94.29
2023-01-17T17:03:20.805Z,92.90
2023-01-17T17:05:55.936Z,92.64
2023-01-17T17:08:29.973Z,93.67
2023-01-17T17:11:06.975Z,94.10
2023-01-17T17:13:36.520Z,93.99
2023-01-17T17:16:09.877Z,94.14
2023-01-17T17:18:37.417Z,94.01
2023-01-17T17:21:04.387Z,93.39
2023-01-17T17:23:33.451Z,94.67
2023-01-17T17:26:03.826Z,95.34
2023-01-17T17:28:31.088Z,94.43
2023-01-17T17:31:05.891Z,95.08
2023-01-17T17:33:32.978Z,95.08
2023-01-17T17:36:07.883Z,95.16
2023-01-17T17:38:35.643Z,95.92
2023-01-17T17:41:10.570Z,97.83
2023-01-17T17:43:39.051Z,97.92
2023-01-17T17:46:07.913Z,97.68
2023-01-17T17:48:35.087Z,97.25
2023-01-17T17:51:02.102Z,97.11
2023-01-17T17:53:29.016Z,96.82
2023-01-17T17:55:56.755Z,96.54
2023-01-17T17:58:24.148Z,97.46
2023-01-17T18:00:51.915Z,98.50
2023-01-17T18:03:20.447Z,98.18
2023-01-17T18:05:48.740Z,97.80
2023-01-17T18:08:15.934Z,96.87
2023-01-17T18:10:43.081Z,96.58
2023-01-17T18:13:10.088Z,96.58
2023-01-17T18:15:36.816Z,96.28
2023-01-17T18:18:03.703Z,97.10
2023-01-17T18:20:30.734Z,97.86
2023-01-17T18:22:57.868Z,97.53
2023-01-17T18:25:25.570Z,97.20
2023-01-17T18:27:52.650Z,97.80
2023-01-17T18:30:19.585Z,97.95
2023-01-17T18:32:50.192Z,98.39
2023-01-17T18:35:17.242Z,99.09
2023-01-17T18:37:43.976Z,98.77
2023-01-17T18:40:11.562Z,99.30
2023-01-17T18:42:39.304Z,99.05
2023-01-17T18:45:06.937Z,97.79
2023-01-17T18:47:34.034Z,97.80
2023-01-17T18:50:02.197Z,99.37
2023-01-17T18:52:29.340Z,98.87
2023-01-17T18:54:56.612Z,99.71
2023-01-17T18:57:26.569Z,99.07
2023-01-17T18:59:53.852Z,99.73
2023-01-17T19:02:21.715Z,99.88
2023-01-17T19:04:48.808Z,98.05
2023-01-17T19:07:15.844Z,98.17
2023-01-17T19:09:44.438Z,99.30
2023-01-17T19:12:11.310Z,99.29
2023-01-17T19:14:38.973Z,100.00
2023-01-17T19:17:05.743Z,100.00
2023-01-17T19:19:32.439Z,100.00
2023-01-17T19:21:59.231Z,100.00
2023-01-17T19:24:26.680Z,100.00
2023-01-17T19:26:54.662Z,100.00
2023-01-17T19:29:23.088Z,100.00
2023-01-17T19:31:49.918Z,100.00
2023-01-17T19:34:19.947Z,100.00
2023-01-17T19:36:47.491Z,100.00
2023-01-17T19:39:14.470Z,100.00
2023-01-17T19:41:43.870Z,100.00
2023-01-17T19:44:14.071Z,100.00
2023-01-17T19:46:41.762Z,100.00
2023-01-17T19:49:09.192Z,100.00
2023-01-17T19:51:36.241Z,100.00
2023-01-17T19:54:04.407Z,100.00
2023-01-17T19:56:31.491Z,99.48
2023-01-17T19:59:02.092Z,100.00
2023-01-17T20:01:31.538Z,99.86
2023-01-17T20:03:59.179Z,100.00
2023-01-17T20:06:32.483Z,100.00
2023-01-17T20:09:04.019Z,100.00
2023-01-17T20:11:31.097Z,100.00
2023-01-17T20:13:59.769Z,100.00
2023-01-17T20:16:29.414Z,100.00
2023-01-17T20:18:58.705Z,100.00
2023-01-17T20:21:27.712Z,100.00
2023-01-17T20:23:55.487Z,100.00
2023-01-17T20:26:26.254Z,100.00
2023-01-17T20:29:19.418Z,100.00
2023-01-17T20:31:52.646Z,100.00
2023-01-17T20:34:19.878Z,100.00
2023-01-17T20:36:47.575Z,100.00
2023-01-17T20:39:15.146Z,100.00
2023-01-17T20:41:44.111Z,100.00
2023-01-17T20:44:16.117Z,100.00
2023-01-17T20:46:43.591Z,100.00
2023-01-17T20:49:15.479Z,100.00
2023-01-17T20:51:44.827Z,100.00
2023-01-17T20:54:16.800Z,100.00
2023-01-17T20:56:44.894Z,100.00
2023-01-17T20:59:15.169Z,100.00
2023-01-17T21:01:44.530Z,100.00
2023-01-17T21:04:13.134Z,100.00
2023-01-17T21:06:41.001Z,100.00
2023-01-17T21:09:10.613Z,100.00
2023-01-17T21:11:37.988Z,100.00
2023-01-17T21:14:09.071Z,100.00
2023-01-17T21:16:36.357Z,100.00
2023-01-17T21:19:03.169Z,100.00
2023-01-17T21:21:30.396Z,100.00
2023-01-17T21:23:59.114Z,100.00
2023-01-17T21:26:27.364Z,100.00
2023-01-17T21:28:55.336Z,100.00
2023-01-17T21:31:28.295Z,100.00
2023-01-17T21:34:03.398Z,100.00
2023-01-17T21:36:33.437Z,100.00
2023-01-17T21:39:05.292Z,100.00
2023-01-17T21:41:34.962Z,100.00
2023-01-17T21:44:04.119Z,100.00
2023-01-17T21:46:30.880Z,100.00
2023-01-17T21:48:57.916Z,100.00
2023-01-17T21:51:45.424Z,100.00
2023-01-17T21:54:12.387Z,100.00
2023-01-17T21:56:58.164Z,100.00
2023-01-17T21:59:25.056Z,100.00
2023-01-17T22:01:51.721Z,100.00
2023-01-17T22:04:18.440Z,100.00
2023-01-17T22:06:45.143Z,100.00
2023-01-17T22:09:12.092Z,100.00
2023-01-17T22:11:38.924Z,100.00
2023-01-17T22:14:06.754Z,100.00
2023-01-17T22:16:34.745Z,100.00
2023-01-17T22:19:01.420Z,100.00
2023-01-17T22:21:29.165Z,100.00
2023-01-17T22:23:58.554Z,100.00
2023-01-17T22:26:28.141Z,100.00
2023-01-17T22:28:55.117Z,100.00
2023-01-17T22:31:24.750Z,100.00
2023-01-17T22:34:00.135Z,100.00
2023-01-17T22:36:27.992Z,100.00
2023-01-17T22:38:55.132Z,100.00
2023-01-17T22:41:24.605Z,100.00
2023-01-17T22:43:53.660Z,100.00
2023-01-17T22:46:23.571Z,100.00
2023-01-17T22:48:50.644Z,100.00
2023-01-17T22:51:19.021Z,100.00
2023-01-17T22:53:48.218Z,100.00
2023-01-17T22:56:17.654Z,100.00
2023-01-17T22:58:45.148Z,100.00
2023-01-17T23:01:18.427Z,100.00
2023-01-17T23:03:46.609Z,100.00
2023-01-17T23:06:21.940Z,100.00
2023-01-17T23:08:51.078Z,100.00
2023-01-17T23:11:46.259Z,100.00
2023-01-17T23:14:30.773Z,100.00
2023-01-17T23:17:18.193Z,100.00
2023-01-17T23:19:49.734Z,100.00
2023-01-17T23:22:27.944Z,100.00
2023-01-17T23:24:57.238Z,100.00
2023-01-17T23:27:52.298Z,100.00
2023-01-17T23:30:22.026Z,100.00
2023-01-17T23:32:51.606Z,100.00
2023-01-17T23:35:20.673Z,100.00
2023-01-17T23:38:06.613Z,100.00
2023-01-17T23:40:34.820Z,100.00
2023-01-17T23:43:20.602Z,100.00
2023-01-17T23:45:47.288Z,100.00
2023-01-17T23:48:14.015Z,100.00
2023-01-17T23:50:45.623Z,100.00
2023-01-17T23:53:22.086Z,100.00
2023-01-17T23:55:51.752Z,100.00
2023-01-17T23:58:19.588Z,100.00
